Time;durP1;ratioP1;P1;durP2;ratioP2;P2;SDS_P1;SDS_P2;PMS_P1;PMS_P2;Temp;Humidity;BMP_temperature;BMP_pressure;BME280_temperature;BME280_humidity;BME280_pressure;Samples;Min_cycle;Max_cycle;Signal;HPM_P1;HPM_P2
2022/05/06 00:01:27;;;;;;;5.57;3.97;;;;;;;-140.79;100.00;63287.88;5062436;28;20029;-49
2022/05/06 00:03:53;;;;;;;5.82;3.90;;;;;;;-140.79;100.00;63287.88;5063070;28;20071;-50
2022/05/06 00:06:19;;;;;;;5.10;3.83;;;;;;;-140.79;100.00;63287.88;5062959;28;20024;-49
2022/05/06 00:08:44;;;;;;;5.57;3.95;;;;;;;-140.79;100.00;63287.88;5062238;28;20036;-49
2022/05/06 00:11:09;;;;;;;6.10;4.07;;;;;;;-140.79;100.00;63287.88;5064277;28;20036;-49
2022/05/06 00:13:35;;;;;;;6.00;4.05;;;;;;;-140.79;100.00;63287.88;5060769;28;20020;-50
2022/05/06 00:16:03;;;;;;;4.97;3.60;;;;;;;-140.79;100.00;63287.88;5064020;28;20557;-50
2022/05/06 00:18:30;;;;;;;4.43;3.58;;;;;;;-140.79;100.00;63287.88;5062881;28;20056;-49
2022/05/06 00:20:55;;;;;;;6.20;4.40;;;;;;;-140.79;100.00;63287.88;5063236;28;20017;-50
2022/05/06 00:23:21;;;;;;;4.80;3.72;;;;;;;-140.79;100.00;63287.88;5062100;28;20194;-49
2022/05/06 00:25:46;;;;;;;5.22;4.00;;;;;;;-140.79;100.00;63287.88;5063752;28;20483;-49
2022/05/06 00:28:12;;;;;;;5.00;3.58;;;;;;;-140.79;100.00;63287.88;5063891;28;20105;-49
2022/05/06 00:30:37;;;;;;;5.47;3.90;;;;;;;-140.79;100.00;63287.88;5061833;28;20494;-50
2022/05/06 00:33:03;;;;;;;4.55;3.63;;;;;;;-140.79;100.00;63287.88;5042270;28;20488;-50
2022/05/06 00:35:28;;;;;;;4.75;3.85;;;;;;;-140.79;100.00;63287.88;5058035;28;20032;-48
2022/05/06 00:37:54;;;;;;;4.57;3.45;;;;;;;-140.79;100.00;63287.88;5063905;28;20028;-49
2022/05/06 00:40:19;;;;;;;5.75;3.58;;;;;;;-140.79;100.00;63287.88;5063411;28;20052;-50
2022/05/06 00:42:45;;;;;;;5.43;4.28;;;;;;;-140.79;100.00;63287.88;5064558;28;20042;-49
2022/05/06 00:45:11;;;;;;;5.28;3.90;;;;;;;-140.79;100.00;63287.88;5063399;28;20488;-48
2022/05/06 00:47:36;;;;;;;5.80;3.95;;;;;;;-140.79;100.00;63287.88;5062732;28;20036;-49
2022/05/06 00:50:03;;;;;;;5.72;3.90;;;;;;;-140.79;100.00;63287.88;5027553;28;20025;-49
2022/05/06 00:52:29;;;;;;;4.47;3.42;;;;;;;-140.79;100.00;63287.88;5061631;28;20618;-48
2022/05/06 00:54:54;;;;;;;4.88;3.63;;;;;;;-140.79;100.00;63287.88;5040535;28;20099;-49
2022/05/06 00:57:19;;;;;;;4.75;3.47;;;;;;;-140.79;100.00;63287.88;5051070;28;20486;-48
2022/05/06 01:00:18;;;;;;;4.20;3.25;;;;;;;-140.79;100.00;63287.88;5026438;28;20032;-49
2022/05/06 01:02:37;;;;;;;4.25;3.45;;;;;;;-140.79;100.00;63287.88;5057580;28;20047;-49
2022/05/06 01:05:03;;;;;;;4.88;3.58;;;;;;;-140.79;100.00;63287.88;5057176;28;20028;-50
2022/05/06 01:07:28;;;;;;;4.30;3.40;;;;;;;-140.79;100.00;63287.88;5042974;28;20362;-50
2022/05/06 01:09:53;;;;;;;4.95;3.38;;;;;;;-140.79;100.00;63287.88;5060296;28;20024;-50
2022/05/06 01:12:19;;;;;;;4.72;3.15;;;;;;;-140.79;100.00;63287.88;5057806;28;20016;-49
2022/05/06 01:14:45;;;;;;;4.97;3.80;;;;;;;-140.79;100.00;63287.88;5063414;28;20090;-49
2022/05/06 01:17:10;;;;;;;5.65;3.70;;;;;;;-140.79;100.00;63287.88;5046330;28;20020;-49
2022/05/06 01:19:36;;;;;;;5.03;3.40;;;;;;;-140.79;100.00;63287.88;5064362;28;20133;-49
2022/05/06 01:22:01;;;;;;;4.40;3.40;;;;;;;-140.79;100.00;63287.88;5064020;28;20040;-50
2022/05/06 01:24:27;;;;;;;4.60;3.45;;;;;;;-140.79;100.00;63287.88;5064068;28;20041;-48
2022/05/06 01:26:55;;;;;;;5.68;3.53;;;;;;;-140.79;100.00;63287.88;5061283;28;20060;-49
2022/05/06 01:29:21;;;;;;;4.03;3.38;;;;;;;-140.79;100.00;63287.88;5063945;28;20081;-49
2022/05/06 01:31:46;;;;;;;4.25;3.35;;;;;;;-140.79;100.00;63287.88;5063884;28;20029;-48
2022/05/06 01:34:13;;;;;;;4.13;3.00;;;;;;;-140.79;100.00;63287.88;5045701;28;20474;-48
2022/05/06 01:36:39;;;;;;;3.83;3.03;;;;;;;-140.79;100.00;63287.88;5046168;28;20059;-50
2022/05/06 01:39:04;;;;;;;3.85;3.13;;;;;;;-140.79;100.00;63287.88;5029553;28;20025;-51
2022/05/06 01:41:31;;;;;;;4.40;3.30;;;;;;;-140.79;100.00;63287.88;5063812;28;20421;-49
2022/05/06 01:44:02;;;;;;;4.63;3.33;;;;;;;-140.79;100.00;63287.88;5063686;28;20060;-49
2022/05/06 01:46:28;;;;;;;4.30;3.20;;;;;;;-140.79;100.00;63287.88;5062561;28;20028;-49
2022/05/06 01:48:53;;;;;;;3.88;3.30;;;;;;;-140.79;100.00;63287.88;5064019;28;20029;-50
2022/05/06 01:51:20;;;;;;;4.50;3.40;;;;;;;-140.79;100.00;63287.88;5045773;28;20575;-49
2022/05/06 01:53:45;;;;;;;4.35;3.40;;;;;;;-140.79;100.00;63287.88;5045285;28;20028;-49
2022/05/06 01:56:11;;;;;;;4.07;3.15;;;;;;;-140.79;100.00;63287.88;5063767;28;20028;-49
2022/05/06 01:58:36;;;;;;;4.03;2.97;;;;;;;-140.79;100.00;63287.88;5062426;28;20020;-51
2022/05/06 02:01:02;;;;;;;4.85;3.25;;;;;;;-140.79;100.00;63287.88;5063444;28;20707;-49
2022/05/06 02:06:11;;;;;;;5.55;3.50;;;;;;;-140.79;100.00;63287.88;5063501;28;20135;-49
2022/05/06 02:08:37;;;;;;;4.05;3.20;;;;;;;-140.79;100.00;63287.88;5063802;28;20036;-50
2022/05/06 02:11:03;;;;;;;4.00;3.22;;;;;;;-140.79;100.00;63287.88;5063626;28;20552;-49
2022/05/06 02:13:28;;;;;;;3.67;2.90;;;;;;;-140.79;100.00;63287.88;5062488;28;20032;-49
2022/05/06 02:15:54;;;;;;;4.55;3.40;;;;;;;-140.79;100.00;63287.88;5063595;28;20112;-50
2022/05/06 02:18:19;;;;;;;3.38;2.90;;;;;;;-140.79;100.00;63287.88;5063565;28;20020;-49
2022/05/06 02:20:45;;;;;;;4.35;3.30;;;;;;;-140.79;100.00;63287.88;5063651;28;20252;-49
2022/05/06 02:23:11;;;;;;;3.78;3.15;;;;;;;-140.79;100.00;63287.88;5063082;28;20258;-50
2022/05/06 02:25:37;;;;;;;3.60;2.90;;;;;;;-140.79;100.00;63287.88;5063202;28;20515;-50
2022/05/06 02:28:03;;;;;;;4.32;3.40;;;;;;;-140.79;100.00;63287.88;5061275;28;20029;-50
2022/05/06 02:33:23;;;;;;;3.60;2.72;;;;;;;-140.79;100.00;63287.88;5061762;28;20097;-50
2022/05/06 02:35:48;;;;;;;4.72;3.00;;;;;;;-140.79;100.00;63287.88;5063447;28;20642;-49
2022/05/06 02:38:14;;;;;;;4.25;3.47;;;;;;;-140.79;100.00;63287.88;5063104;28;20036;-49
2022/05/06 02:40:39;;;;;;;4.55;3.15;;;;;;;-140.79;100.00;63287.88;5063336;28;20033;-48
2022/05/06 02:43:05;;;;;;;4.25;3.35;;;;;;;-140.79;100.00;63287.88;5062676;28;20028;-49
2022/05/06 02:45:32;;;;;;;3.85;3.10;;;;;;;-140.79;100.00;63287.88;5045197;28;20476;-49
2022/05/06 02:47:57;;;;;;;4.18;3.17;;;;;;;-140.79;100.00;63287.88;5063321;28;20028;-50
2022/05/06 02:50:23;;;;;;;4.47;3.00;;;;;;;-140.79;100.00;63287.88;5063058;28;20403;-49
2022/05/06 02:52:49;;;;;;;4.70;3.15;;;;;;;-140.79;100.00;63287.88;5061867;28;20036;-49
2022/05/06 02:55:14;;;;;;;4.20;2.97;;;;;;;-140.79;100.00;63287.88;5063179;28;20016;-50
2022/05/06 02:57:40;;;;;;;4.13;3.05;;;;;;;-140.79;100.00;63287.88;5063073;28;20035;-50
2022/05/06 03:00:06;;;;;;;3.80;2.90;;;;;;;-140.79;100.00;63287.88;5045062;28;20021;-49
2022/05/06 03:02:32;;;;;;;3.95;3.13;;;;;;;-140.79;100.00;63287.88;5062277;28;20032;-49
2022/05/06 03:04:57;;;;;;;3.70;2.80;;;;;;;-140.79;100.00;63287.88;5061449;28;20480;-49
2022/05/06 03:07:22;;;;;;;5.13;3.20;;;;;;;-140.79;100.00;63287.88;5063023;28;20416;-49
2022/05/06 03:09:48;;;;;;;3.67;2.92;;;;;;;-140.79;100.00;63287.88;5063165;28;20477;-49
2022/05/06 03:12:16;;;;;;;4.10;3.05;;;;;;;-140.79;100.00;63287.88;5062931;28;20028;-49
2022/05/06 03:14:42;;;;;;;3.65;2.80;;;;;;;-140.79;100.00;63287.88;5062428;28;20024;-50
2022/05/06 03:17:07;;;;;;;3.95;2.83;;;;;;;-140.79;100.00;63287.88;5062968;28;20032;-49
2022/05/06 03:19:32;;;;;;;4.63;3.20;;;;;;;-140.79;100.00;63287.88;5044956;28;20009;-49
2022/05/06 03:21:58;;;;;;;3.17;2.78;;;;;;;-140.79;100.00;63287.88;5062876;28;20029;-50
2022/05/06 03:24:23;;;;;;;4.95;3.05;;;;;;;-140.79;100.00;63287.88;5045243;28;20012;-50
2022/05/06 03:26:49;;;;;;;3.63;3.08;;;;;;;-140.79;100.00;63287.88;5065996;28;20055;-49
2022/05/06 03:29:14;;;;;;;4.15;2.80;;;;;;;-140.79;100.00;63287.88;5066419;28;20082;-51
2022/05/06 03:31:40;;;;;;;3.97;2.60;;;;;;;-140.79;100.00;63287.88;5066362;28;20505;-49
2022/05/06 03:34:05;;;;;;;4.28;3.10;;;;;;;-140.79;100.00;63287.88;5065975;28;20047;-48
2022/05/06 03:36:32;;;;;;;3.88;3.00;;;;;;;-140.79;100.00;63287.88;5066319;28;20032;-50
2022/05/06 03:38:57;;;;;;;3.45;2.78;;;;;;;-140.79;100.00;63287.88;5062297;28;20032;-50
2022/05/06 03:41:23;;;;;;;2.90;2.60;;;;;;;-140.79;100.00;63287.88;5065395;28;20142;-51
2022/05/06 03:43:48;;;;;;;3.35;2.83;;;;;;;-140.79;100.00;63287.88;5065444;28;20561;-50
2022/05/06 03:46:14;;;;;;;3.25;2.80;;;;;;;-140.79;100.00;63287.88;5065907;28;20431;-49
2022/05/06 03:48:39;;;;;;;4.53;2.85;;;;;;;-140.79;100.00;63287.88;5064374;28;20129;-48
2022/05/06 03:51:21;;;;;;;3.97;2.97;;;;;;;-140.79;100.00;63287.88;5063382;28;20400;-49
2022/05/06 03:53:50;;;;;;;3.97;2.95;;;;;;;-140.79;100.00;63287.88;5064319;28;20116;-48
2022/05/06 03:56:15;;;;;;;4.07;2.95;;;;;;;-140.79;100.00;63287.88;5064190;28;20597;-48
2022/05/06 03:58:41;;;;;;;3.40;2.90;;;;;;;-140.79;100.00;63287.88;5063826;28;20028;-49
2022/05/06 04:01:09;;;;;;;4.65;2.63;;;;;;;-140.79;100.00;63287.88;5058361;28;20331;-50
2022/05/06 04:03:35;;;;;;;3.53;2.78;;;;;;;-140.79;100.00;63287.88;5061978;28;20027;-47
2022/05/06 04:06:01;;;;;;;4.38;3.05;;;;;;;-140.79;100.00;63287.88;5045623;28;20020;-46
2022/05/06 04:08:27;;;;;;;3.85;2.72;;;;;;;-140.79;100.00;63287.88;5063515;28;20028;-48
2022/05/06 04:10:53;;;;;;;3.13;2.63;;;;;;;-140.79;100.00;63287.88;5063663;28;20020;-48
2022/05/06 04:13:19;;;;;;;4.28;2.78;;;;;;;-140.79;100.00;63287.88;5064173;28;20712;-49
2022/05/06 04:15:47;;;;;;;4.32;3.05;;;;;;;-140.79;100.00;63287.88;5063839;28;20025;-48
2022/05/06 04:18:13;;;;;;;3.45;2.60;;;;;;;-140.79;100.00;63287.88;5061686;28;20032;-48
2022/05/06 04:23:32;;;;;;;4.10;2.92;;;;;;;-140.79;100.00;63287.88;5063225;28;20415;-47
2022/05/06 04:26:01;;;;;;;3.38;3.00;;;;;;;-140.79;100.00;63287.88;5063769;28;20119;-48
2022/05/06 04:28:27;;;;;;;3.88;2.63;;;;;;;-140.79;100.00;63287.88;5064138;28;20111;-47
2022/05/06 04:30:53;;;;;;;4.13;2.97;;;;;;;-140.79;100.00;63287.88;5064100;28;20020;-47
2022/05/06 04:33:22;;;;;;;4.65;3.38;;;;;;;-140.79;100.00;63287.88;5063337;28;20593;-48
2022/05/06 04:35:48;;;;;;;3.50;2.78;;;;;;;-140.79;100.00;63287.88;5062507;28;20020;-47
2022/05/06 04:38:13;;;;;;;3.88;2.80;;;;;;;-140.79;100.00;63287.88;5064009;28;20082;-47
2022/05/06 04:40:40;;;;;;;3.22;2.60;;;;;;;-140.79;100.00;63287.88;5063514;28;20491;-48
2022/05/06 04:43:06;;;;;;;3.58;2.92;;;;;;;-140.79;100.00;63287.88;5063323;28;20056;-48
2022/05/06 04:45:35;;;;;;;3.85;3.05;;;;;;;-140.79;100.00;63287.88;5063845;28;20055;-49
2022/05/06 04:48:01;;;;;;;3.28;2.72;;;;;;;-140.79;100.00;63287.88;5063532;28;20042;-48
2022/05/06 04:50:27;;;;;;;3.67;2.60;;;;;;;-140.79;100.00;63287.88;5064021;28;20024;-49
2022/05/06 04:52:53;;;;;;;3.80;2.70;;;;;;;-140.79;100.00;63287.88;5063520;28;20029;-48
2022/05/06 04:55:18;;;;;;;3.53;2.90;;;;;;;-140.79;100.00;63287.88;5064175;28;20510;-49
2022/05/06 04:57:44;;;;;;;156.10;86.10;;;;;;;-140.79;100.00;63287.88;5064682;28;20495;-49
2022/05/06 05:00:09;;;;;;;125.07;72.95;;;;;;;-140.79;100.00;63287.88;5064429;28;20572;-49
2022/05/06 05:02:35;;;;;;;115.50;67.75;;;;;;;-140.79;100.00;63287.88;5063405;28;20470;-48
2022/05/06 05:05:03;;;;;;;84.55;49.90;;;;;;;-140.79;100.00;63287.88;5062135;28;20013;-49
2022/05/06 05:07:28;;;;;;;77.90;44.92;;;;;;;-140.79;100.00;63287.88;5064473;28;20025;-49
2022/05/06 05:09:54;;;;;;;74.35;43.53;;;;;;;-140.79;100.00;63287.88;5063389;28;20036;-49
2022/05/06 05:12:19;;;;;;;80.45;44.65;;;;;;;-140.79;100.00;63287.88;5062685;28;20028;-49
2022/05/06 05:14:45;;;;;;;67.00;38.88;;;;;;;-140.79;100.00;63287.88;5062638;28;20395;-49
2022/05/06 05:17:11;;;;;;;60.78;35.20;;;;;;;-140.79;100.00;63287.88;5061983;28;20028;-48
2022/05/06 05:19:37;;;;;;;53.88;33.50;;;;;;;-140.79;100.00;63287.88;5063180;28;20106;-49
2022/05/06 05:22:03;;;;;;;51.42;31.90;;;;;;;-140.79;100.00;63287.88;5062517;28;20051;-49
2022/05/06 05:24:28;;;;;;;53.58;31.23;;;;;;;-140.79;100.00;63287.88;5062607;28;20515;-49
2022/05/06 05:26:54;;;;;;;46.58;29.17;;;;;;;-140.79;100.00;63287.88;5061912;28;20083;-49
2022/05/06 05:29:20;;;;;;;47.15;28.98;;;;;;;-140.79;100.00;63287.88;5063089;28;20032;-48
2022/05/06 05:31:45;;;;;;;41.50;27.30;;;;;;;-140.79;100.00;63287.88;5041533;28;20079;-49
2022/05/06 05:34:10;;;;;;;46.50;27.52;;;;;;;-140.79;100.00;63287.88;5060459;28;20028;-48
2022/05/06 05:36:36;;;;;;;40.72;24.83;;;;;;;-140.79;100.00;63287.88;5045869;28;20025;-49
2022/05/06 05:39:01;;;;;;;40.00;25.02;;;;;;;-140.79;100.00;63287.88;5063190;28;20020;-48
2022/05/06 05:41:27;;;;;;;38.08;24.08;;;;;;;-140.79;100.00;63287.88;5062440;28;20446;-49
2022/05/06 05:49:21;;;;;;;36.97;23.23;;;;;;;-140.79;100.00;63287.88;5063379;28;20059;-49
2022/05/06 05:51:47;;;;;;;35.80;22.90;;;;;;;-140.79;100.00;63287.88;5062593;28;20028;-48
2022/05/06 05:54:12;;;;;;;33.25;21.35;;;;;;;-140.79;100.00;63287.88;5061838;28;20047;-48
2022/05/06 05:56:38;;;;;;;32.35;20.20;;;;;;;-140.79;100.00;63287.88;5062229;28;20021;-49
2022/05/06 05:59:03;;;;;;;32.53;20.10;;;;;;;-140.79;100.00;63287.88;5040522;28;20059;-49
2022/05/06 06:01:30;;;;;;;33.22;19.92;;;;;;;-140.79;100.00;63287.88;5058513;28;20044;-48
2022/05/06 06:03:55;;;;;;;28.80;19.70;;;;;;;-140.79;100.00;63287.88;5062694;28;20028;-49
2022/05/06 06:06:21;;;;;;;30.60;19.02;;;;;;;-140.79;100.00;63287.88;5063228;28;20102;-49
2022/05/06 06:08:46;;;;;;;27.50;18.48;;;;;;;-140.79;100.00;63287.88;5063697;28;20044;-49
2022/05/06 06:11:12;;;;;;;28.92;18.50;;;;;;;-140.79;100.00;63287.88;5063560;28;20511;-50
2022/05/06 06:13:37;;;;;;;27.40;17.65;;;;;;;-140.79;100.00;63287.88;5062089;28;20033;-49
2022/05/06 06:16:03;;;;;;;25.95;16.95;;;;;;;-140.79;100.00;63287.88;5063137;28;20112;-49
2022/05/06 06:18:28;;;;;;;26.55;16.33;;;;;;;-140.79;100.00;63287.88;5063433;28;20046;-48
2022/05/06 06:20:56;;;;;;;26.77;16.98;;;;;;;-140.79;100.00;63287.88;5063592;28;20025;-48
2022/05/06 06:23:22;;;;;;;26.60;17.17;;;;;;;-140.79;100.00;63287.88;5063092;28;20115;-48
2022/05/06 06:25:48;;;;;;;25.30;16.58;;;;;;;-140.79;100.00;63287.88;5062730;28;20585;-49
2022/05/06 06:28:14;;;;;;;23.40;15.63;;;;;;;-140.79;100.00;63287.88;5063201;28;20511;-49
2022/05/06 06:30:40;;;;;;;23.10;15.10;;;;;;;-140.79;100.00;63287.88;5061713;28;20052;-48
2022/05/06 06:33:07;;;;;;;22.88;15.05;;;;;;;-140.79;100.00;63287.88;5062737;28;20039;-49
2022/05/06 06:35:32;;;;;;;22.88;14.93;;;;;;;-140.79;100.00;63287.88;5063181;28;20028;-49
2022/05/06 06:37:58;;;;;;;22.52;14.93;;;;;;;-140.79;100.00;63287.88;5063070;28;20025;-50
2022/05/06 06:40:24;;;;;;;21.88;14.35;;;;;;;-140.79;100.00;63287.88;5063045;28;20020;-49
2022/05/06 06:42:49;;;;;;;20.27;13.93;;;;;;;-140.79;100.00;63287.88;5062973;28;20033;-49
2022/05/06 06:45:14;;;;;;;20.33;13.98;;;;;;;-140.79;100.00;63287.88;5063128;28;20020;-50
2022/05/06 06:47:40;;;;;;;20.45;13.93;;;;;;;-140.79;100.00;63287.88;5062086;28;20021;-49
2022/05/06 06:50:06;;;;;;;19.92;13.43;;;;;;;-140.79;100.00;63287.88;5063382;28;20025;-49
2022/05/06 06:52:31;;;;;;;20.17;13.48;;;;;;;-140.79;100.00;63287.88;5062755;28;20307;-49
2022/05/06 06:54:57;;;;;;;20.35;12.93;;;;;;;-140.79;100.00;63287.88;5061246;28;20515;-50
2022/05/06 06:57:23;;;;;;;21.13;13.30;;;;;;;-140.79;100.00;63287.88;5061451;28;20471;-49
2022/05/06 06:59:48;;;;;;;19.00;12.80;;;;;;;-140.79;100.00;63287.88;5062032;28;20060;-48
2022/05/06 07:02:14;;;;;;;19.48;12.57;;;;;;;-140.79;100.00;63287.88;5064477;28;20020;-48
2022/05/06 07:04:39;;;;;;;17.83;13.43;;;;;;;-140.79;100.00;63287.88;5063995;28;20013;-50
2022/05/06 07:12:33;;;;;;;19.45;13.18;;;;;;;-140.79;100.00;63287.88;5065923;28;20039;-48
2022/05/06 07:14:58;;;;;;;21.35;12.88;;;;;;;-140.79;100.00;63287.88;5047803;28;20322;-49
2022/05/06 07:17:24;;;;;;;18.48;12.07;;;;;;;-140.79;100.00;63287.88;5064963;28;20676;-49
2022/05/06 07:19:49;;;;;;;17.38;11.77;;;;;;;-140.79;100.00;63287.88;5066361;28;20032;-48
2022/05/06 07:22:15;;;;;;;17.17;11.98;;;;;;;-140.79;100.00;63287.88;5065955;28;20043;-49
2022/05/06 07:24:40;;;;;;;16.80;11.68;;;;;;;-140.79;100.00;63287.88;5065510;28;20058;-48
2022/05/06 07:27:07;;;;;;;17.17;12.32;;;;;;;-140.79;100.00;63287.88;5065161;28;20053;-48
2022/05/06 07:29:33;;;;;;;18.38;11.70;;;;;;;-140.79;100.00;63287.88;5064743;28;20415;-48
2022/05/06 07:31:58;;;;;;;16.67;10.85;;;;;;;-140.79;100.00;63287.88;5064547;28;20040;-50
2022/05/06 07:34:24;;;;;;;16.23;10.82;;;;;;;-140.79;100.00;63287.88;5061796;28;20037;-49
2022/05/06 07:36:49;;;;;;;20.95;11.75;;;;;;;-140.79;100.00;63287.88;5042692;28;20024;-48
2022/05/06 07:39:15;;;;;;;16.60;11.10;;;;;;;-140.79;100.00;63287.88;5055076;28;20029;-48
2022/05/06 07:41:40;;;;;;;16.60;11.38;;;;;;;-140.79;100.00;63287.88;5055689;28;20050;-47
2022/05/06 07:44:06;;;;;;;14.60;10.50;;;;;;;-140.79;100.00;63287.88;5055990;28;20473;-48
2022/05/06 07:46:32;;;;;;;15.02;10.30;;;;;;;-140.79;100.00;63287.88;5021408;28;20032;-47
2022/05/06 07:48:58;;;;;;;19.63;10.27;;;;;;;-140.79;100.00;63287.88;5065133;28;20268;-49
2022/05/06 07:51:23;;;;;;;16.60;10.90;;;;;;;-140.79;100.00;63287.88;5061122;28;20028;-49
2022/05/06 07:53:51;;;;;;;9.10;6.65;;;;;;;-140.79;100.00;63287.88;5065082;28;20724;-48
2022/05/06 07:56:19;;;;;;;7.85;5.38;;;;;;;-140.79;100.00;63287.88;5066214;28;20103;-51
2022/05/06 07:58:45;;;;;;;7.70;4.72;;;;;;;-140.79;100.00;63287.88;5065033;28;20016;-50
2022/05/06 08:01:12;;;;;;;8.77;5.43;;;;;;;-140.79;100.00;63287.88;5065005;28;20044;-49
2022/05/06 08:06:21;;;;;;;5.47;4.25;;;;;;;-140.79;100.00;63287.88;5066077;28;20542;-48
2022/05/06 08:08:47;;;;;;;7.43;4.95;;;;;;;-140.79;100.00;63287.88;5065176;28;20032;-48
2022/05/06 08:11:12;;;;;;;7.03;5.05;;;;;;;-140.79;100.00;63287.88;5065239;28;20466;-47
2022/05/06 08:13:37;;;;;;;7.32;4.47;;;;;;;-140.79;100.00;63287.88;5065621;28;20037;-48
2022/05/06 08:16:03;;;;;;;5.70;4.57;;;;;;;-140.79;100.00;63287.88;5065160;28;20134;-48
2022/05/06 08:18:29;;;;;;;7.03;4.28;;;;;;;-140.79;100.00;63287.88;5064808;28;20035;-48
2022/05/06 08:20:54;;;;;;;6.20;4.45;;;;;;;-140.79;100.00;63287.88;5065398;28;20486;-48
2022/05/06 08:23:23;;;;;;;7.55;4.95;;;;;;;-140.79;100.00;63287.88;5065075;28;20093;-48
2022/05/06 08:25:49;;;;;;;6.15;4.50;;;;;;;-140.79;100.00;63287.88;5046871;28;20101;-48
2022/05/06 08:28:15;;;;;;;6.30;4.75;;;;;;;-140.79;100.00;63287.88;5047416;28;20514;-48
2022/05/06 08:30:41;;;;;;;6.88;4.60;;;;;;;-140.79;100.00;63287.88;5065588;28;20401;-48
2022/05/06 08:33:06;;;;;;;7.50;4.47;;;;;;;-140.79;100.00;63287.88;5064112;28;20086;-46
2022/05/06 08:35:32;;;;;;;7.65;4.30;;;;;;;-140.79;100.00;63287.88;5064081;28;20025;-49
2022/05/06 08:37:58;;;;;;;6.13;4.13;;;;;;;-140.79;100.00;63287.88;5064073;28;20447;-48
2022/05/06 08:40:25;;;;;;;7.25;4.28;;;;;;;-140.79;100.00;63287.88;5063025;28;20029;-48
2022/05/06 08:42:51;;;;;;;6.30;4.70;;;;;;;-140.79;100.00;63287.88;5064129;28;20036;-47
2022/05/06 08:50:53;;;;;;;5.72;4.07;;;;;;;-140.79;100.00;63287.88;5064943;28;20039;-49
2022/05/06 08:53:22;;;;;;;6.43;4.43;;;;;;;-140.79;100.00;63287.88;5046354;28;20400;-50
2022/05/06 08:55:57;;;;;;;4.93;4.13;;;;;;;-140.79;100.00;63287.88;5064422;28;20043;-49
2022/05/06 08:58:24;;;;;;;7.22;4.95;;;;;;;-140.79;100.00;63287.88;5064545;28;20028;-48
2022/05/06 09:00:56;;;;;;;7.35;4.57;;;;;;;-140.79;100.00;63287.88;5064394;28;20021;-49
2022/05/06 09:03:22;;;;;;;6.85;4.18;;;;;;;-140.79;100.00;63287.88;5045719;28;20522;-49
2022/05/06 09:05:52;;;;;;;8.18;4.30;;;;;;;-140.79;100.00;63287.88;5062876;28;20025;-48
2022/05/06 09:08:17;;;;;;;6.10;4.70;;;;;;;-140.79;100.00;63287.88;5064496;28;20028;-49
2022/05/06 09:10:43;;;;;;;6.63;4.28;;;;;;;-140.79;100.00;63287.88;5064138;28;20056;-49
2022/05/06 09:13:08;;;;;;;5.28;4.00;;;;;;;-140.79;100.00;63287.88;5046064;28;21386;-49
2022/05/06 09:18:19;;;;;;;6.60;4.55;;;;;;;-140.79;100.00;63287.88;5063989;28;20407;-49
2022/05/06 09:20:45;;;;;;;5.88;3.97;;;;;;;-140.79;100.00;63287.88;5064186;28;20025;-48
2022/05/06 09:23:26;;;;;;;5.85;4.22;;;;;;;-140.79;100.00;63287.88;5044903;28;20024;-47
2022/05/06 09:25:52;;;;;;;5.10;4.03;;;;;;;-140.79;100.00;63287.88;5063230;28;20054;-50
2022/05/06 09:28:32;;;;;;;7.50;4.57;;;;;;;-140.79;100.00;63287.88;5064149;28;20036;-49
2022/05/06 09:31:04;;;;;;;5.30;3.97;;;;;;;-140.79;100.00;63287.88;5062607;28;20040;-48
2022/05/06 09:33:35;;;;;;;8.48;4.25;;;;;;;-140.79;100.00;63287.88;5062195;28;20039;-49
2022/05/06 09:36:24;;;;;;;5.55;3.88;;;;;;;-140.79;100.00;63287.88;5064039;28;20033;-48
2022/05/06 09:39:00;;;;;;;;;;;;;;;-140.79;100.00;63287.88;5049290;28;20506;-48
2022/05/06 09:41:25;;;;;;;7.70;4.35;;;;;;;-140.79;100.00;63287.88;5062627;28;20012;-48
2022/05/06 09:44:00;;;;;;;5.20;3.90;;;;;;;-140.79;100.00;63287.88;5063679;28;20388;-48
2022/05/06 09:46:26;;;;;;;6.90;3.90;;;;;;;-140.79;100.00;63287.88;5062622;28;20127;-48
2022/05/06 09:48:58;;;;;;;5.47;4.07;;;;;;;-140.79;100.00;63287.88;5060414;28;20518;-49
2022/05/06 09:51:27;;;;;;;5.55;4.07;;;;;;;-140.79;100.00;63287.88;5062721;28;20028;-49
2022/05/06 09:53:55;;;;;;;4.83;3.83;;;;;;;-140.79;100.00;63287.88;5063273;28;20067;-50
2022/05/06 09:56:21;;;;;;;5.43;4.07;;;;;;;-140.79;100.00;63287.88;5045552;28;20358;-50
2022/05/06 09:58:46;;;;;;;6.38;3.72;;;;;;;-140.79;100.00;63287.88;5062529;28;20024;-47
2022/05/06 10:01:15;;;;;;;5.75;4.20;;;;;;;-140.79;100.00;63287.88;5043204;28;20063;-47
2022/05/06 10:03:41;;;;;;;6.50;4.05;;;;;;;-140.79;100.00;63287.88;5059269;28;20020;-47
2022/05/06 10:06:09;;;;;;;5.95;3.95;;;;;;;-140.79;100.00;63287.88;5061772;28;20052;-47
2022/05/06 10:08:34;;;;;;;6.38;3.72;;;;;;;-140.79;100.00;63287.88;5035345;28;20067;-49
2022/05/06 10:11:00;;;;;;;4.60;3.70;;;;;;;-140.79;100.00;63287.88;5025548;28;20037;-48
2022/05/06 10:13:28;;;;;;;5.30;3.83;;;;;;;-140.79;100.00;63287.88;5030005;28;20477;-50
2022/05/06 10:15:53;;;;;;;5.10;4.20;;;;;;;-140.79;100.00;63287.88;5045137;28;20028;-48
2022/05/06 10:18:38;;;;;;;5.18;3.88;;;;;;;-140.79;100.00;63287.88;5062171;28;20023;-49
2022/05/06 10:21:07;;;;;;;6.07;3.95;;;;;;;-140.79;100.00;63287.88;5044567;28;20024;-48
2022/05/06 10:23:42;;;;;;;6.05;4.03;;;;;;;-140.79;100.00;63287.88;5062394;28;20524;-49
2022/05/06 10:26:08;;;;;;;6.13;3.78;;;;;;;-140.79;100.00;63287.88;5062839;28;20056;-49
2022/05/06 10:34:14;;;;;;;5.68;3.90;;;;;;;-140.79;100.00;63287.88;5064954;28;20079;-49
2022/05/06 10:36:44;;;;;;;5.63;3.53;;;;;;;-140.79;100.00;63287.88;5049054;28;20067;-50
2022/05/06 10:39:29;;;;;;;5.05;3.58;;;;;;;-140.79;100.00;63287.88;5066535;28;20044;-48
2022/05/06 10:42:15;;;;;;;5.03;3.72;;;;;;;-140.79;100.00;63287.88;5066851;28;20119;-49
2022/05/06 10:44:44;;;;;;;5.75;3.72;;;;;;;-140.79;100.00;63287.88;5067136;28;20028;-49
2022/05/06 10:47:12;;;;;;;5.65;3.70;;;;;;;-140.79;100.00;63287.88;5065722;28;20056;-48
2022/05/06 10:49:37;;;;;;;5.00;3.65;;;;;;;-140.79;100.00;63287.88;5066991;28;20071;-50
2022/05/06 10:52:28;;;;;;;5.60;3.55;;;;;;;-140.79;100.00;63287.88;5066130;28;20048;-49
2022/05/06 10:54:55;;;;;;;5.65;3.60;;;;;;;-140.79;100.00;63287.88;5066741;28;20063;-48
2022/05/06 10:57:22;;;;;;;4.93;3.42;;;;;;;-140.79;100.00;63287.88;5047974;28;20411;-49
2022/05/06 10:59:50;;;;;;;5.10;3.97;;;;;;;-140.79;100.00;63287.88;5064866;28;20066;-49
2022/05/06 11:02:16;;;;;;;5.38;3.80;;;;;;;-140.79;100.00;63287.88;5045694;28;20164;-49
2022/05/06 11:05:00;;;;;;;4.47;3.65;;;;;;;-140.79;100.00;63287.88;5062394;28;20056;-47
2022/05/06 11:07:27;;;;;;;4.63;3.50;;;;;;;-140.79;100.00;63287.88;5065085;28;20033;-47
2022/05/06 11:09:52;;;;;;;5.05;3.40;;;;;;;-140.79;100.00;63287.88;5066444;28;20035;-48
2022/05/06 11:12:31;;;;;;;6.15;4.07;;;;;;;-140.79;100.00;63287.88;5066716;28;20483;-48
2022/05/06 11:14:56;;;;;;;4.38;3.72;;;;;;;-140.79;100.00;63287.88;5048759;28;20082;-47
2022/05/06 11:17:22;;;;;;;4.53;3.45;;;;;;;-140.79;100.00;63287.88;5062161;28;20124;-48
2022/05/06 11:19:49;;;;;;;5.30;3.10;;;;;;;-140.79;100.00;63287.88;5061822;28;20403;-48
2022/05/06 11:22:14;;;;;;;6.57;3.85;;;;;;;-140.79;100.00;63287.88;5029880;28;20031;-48
2022/05/06 11:24:40;;;;;;;5.10;3.25;;;;;;;-140.79;100.00;63287.88;5063718;28;20029;-48
2022/05/06 11:27:15;;;;;;;5.07;3.55;;;;;;;-140.79;100.00;63287.88;5064066;28;20049;-49
2022/05/06 11:29:50;;;;;;;4.35;3.33;;;;;;;-140.79;100.00;63287.88;5059389;28;20020;-48
2022/05/06 11:32:16;;;;;;;4.20;3.17;;;;;;;-140.79;100.00;63287.88;5062582;28;20064;-49
2022/05/06 11:34:54;;;;;;;4.68;3.33;;;;;;;-140.79;100.00;63287.88;5063574;28;20035;-47
2022/05/06 11:37:30;;;;;;;5.93;3.60;;;;;;;-140.79;100.00;63287.88;5048491;28;20052;-48
2022/05/06 11:40:18;;;;;;;5.45;3.65;;;;;;;-140.79;100.00;63287.88;5064737;28;20009;-48